sensor_id;sensor_type;location;lat;lon;timestamp;temperature;humidity
32217;DHT22;67098;51.140;4.088;2023-03-23T00:01:18;14.00;95.20
32217;DHT22;67098;51.140;4.088;2023-03-23T00:03:49;14.00;95.20
32217;DHT22;67098;51.140;4.088;2023-03-23T00:06:16;14.10;95.20
32217;DHT22;67098;51.140;4.088;2023-03-23T00:08:45;14.10;95.30
32217;DHT22;67098;51.140;4.088;2023-03-23T00:11:16;14.10;95.30
32217;DHT22;67098;51.140;4.088;2023-03-23T00:13:44;14.00;95.60
32217;DHT22;67098;51.140;4.088;2023-03-23T00:16:13;14.00;95.60
32217;DHT22;67098;51.140;4.088;2023-03-23T00:18:48;14.10;95.30
32217;DHT22;67098;51.140;4.088;2023-03-23T00:21:26;14.20;95.10
32217;DHT22;67098;51.140;4.088;2023-03-23T00:23:59;14.30;94.90
32217;DHT22;67098;51.140;4.088;2023-03-23T00:26:25;14.30;95.10
32217;DHT22;67098;51.140;4.088;2023-03-23T00:28:54;14.20;95.10
32217;DHT22;67098;51.140;4.088;2023-03-23T00:31:19;14.20;95.20
32217;DHT22;67098;51.140;4.088;2023-03-23T00:33:45;14.30;94.90
32217;DHT22;67098;51.140;4.088;2023-03-23T00:36:11;14.30;94.90
32217;DHT22;67098;51.140;4.088;2023-03-23T00:38:38;14.40;94.80
32217;DHT22;67098;51.140;4.088;2023-03-23T00:41:04;14.20;95.20
32217;DHT22;67098;51.140;4.088;2023-03-23T00:43:31;14.30;95.10
32217;DHT22;67098;51.140;4.088;2023-03-23T00:45:57;14.40;95.00
32217;DHT22;67098;51.140;4.088;2023-03-23T00:48:27;14.40;95.20
32217;DHT22;67098;51.140;4.088;2023-03-23T00:50:53;14.40;94.90
32217;DHT22;67098;51.140;4.088;2023-03-23T00:53:19;14.30;95.10
32217;DHT22;67098;51.140;4.088;2023-03-23T00:55:46;14.40;94.90
32217;DHT22;67098;51.140;4.088;2023-03-23T00:58:13;14.40;95.00
32217;DHT22;67098;51.140;4.088;2023-03-23T01:00:39;14.40;94.90
32217;DHT22;67098;51.140;4.088;2023-03-23T01:03:06;14.30;95.10
32217;DHT22;67098;51.140;4.088;2023-03-23T01:05:37;14.30;95.00
32217;DHT22;67098;51.140;4.088;2023-03-23T01:08:03;14.20;95.20
32217;DHT22;67098;51.140;4.088;2023-03-23T01:10:29;14.30;94.80
32217;DHT22;67098;51.140;4.088;2023-03-23T01:12:59;14.30;94.80
32217;DHT22;67098;51.140;4.088;2023-03-23T01:15:25;14.20;95.00
32217;DHT22;67098;51.140;4.088;2023-03-23T01:17:51;14.10;95.20
32217;DHT22;67098;51.140;4.088;2023-03-23T01:20:17;14.00;95.40
32217;DHT22;67098;51.140;4.088;2023-03-23T01:22:43;14.10;95.40
32217;DHT22;67098;51.140;4.088;2023-03-23T01:25:10;14.10;95.50
32217;DHT22;67098;51.140;4.088;2023-03-23T01:27:37;14.20;95.30
32217;DHT22;67098;51.140;4.088;2023-03-23T01:30:03;14.20;95.30
32217;DHT22;67098;51.140;4.088;2023-03-23T01:32:29;14.20;95.40
32217;DHT22;67098;51.140;4.088;2023-03-23T01:34:55;14.30;95.30
32217;DHT22;67098;51.140;4.088;2023-03-23T01:37:21;14.20;95.30
32217;DHT22;67098;51.140;4.088;2023-03-23T01:39:55;14.20;95.50
32217;DHT22;67098;51.140;4.088;2023-03-23T01:42:26;14.30;95.20
32217;DHT22;67098;51.140;4.088;2023-03-23T01:47:21;14.50;94.80
32217;DHT22;67098;51.140;4.088;2023-03-23T01:49:49;14.50;94.80
32217;DHT22;67098;51.140;4.088;2023-03-23T01:52:27;14.30;95.10
32217;DHT22;67098;51.140;4.088;2023-03-23T01:54:56;14.30;95.20
32217;DHT22;67098;51.140;4.088;2023-03-23T01:57:23;14.30;95.10
32217;DHT22;67098;51.140;4.088;2023-03-23T01:59:53;14.30;95.10
32217;DHT22;67098;51.140;4.088;2023-03-23T02:02:22;14.30;95.10
32217;DHT22;67098;51.140;4.088;2023-03-23T02:04:49;14.30;95.20
32217;DHT22;67098;51.140;4.088;2023-03-23T02:07:19;14.30;95.10
32217;DHT22;67098;51.140;4.088;2023-03-23T02:09:45;14.20;95.30
32217;DHT22;67098;51.140;4.088;2023-03-23T02:12:11;14.10;95.30
32217;DHT22;67098;51.140;4.088;2023-03-23T02:14:37;14.10;95.10
32217;DHT22;67098;51.140;4.088;2023-03-23T02:28:31;14.00;95.10
32217;DHT22;67098;51.140;4.088;2023-03-23T02:33:55;13.90;95.30
32217;DHT22;67098;51.140;4.088;2023-03-23T02:41:27;14.00;94.80
32217;DHT22;67098;51.140;4.088;2023-03-23T02:43:55;13.90;94.70
32217;DHT22;67098;51.140;4.088;2023-03-23T02:46:22;13.90;94.80
32217;DHT22;67098;51.140;4.088;2023-03-23T02:48:49;13.90;94.60
32217;DHT22;67098;51.140;4.088;2023-03-23T02:51:18;13.90;94.80
32217;DHT22;67098;51.140;4.088;2023-03-23T02:53:46;13.90;94.60
32217;DHT22;67098;51.140;4.088;2023-03-23T02:56:14;13.80;94.50
32217;DHT22;67098;51.140;4.088;2023-03-23T02:58:40;13.90;94.60
32217;DHT22;67098;51.140;4.088;2023-03-23T03:04:05;14.10;94.10
32217;DHT22;67098;51.140;4.088;2023-03-23T03:09:20;13.90;94.40
32217;DHT22;67098;51.140;4.088;2023-03-23T03:11:55;14.00;94.30
32217;DHT22;67098;51.140;4.088;2023-03-23T03:14:29;13.90;94.60
32217;DHT22;67098;51.140;4.088;2023-03-23T03:17:25;13.80;94.80
32217;DHT22;67098;51.140;4.088;2023-03-23T03:19:56;13.80;94.60
32217;DHT22;67098;51.140;4.088;2023-03-23T03:22:23;13.90;94.60
32217;DHT22;67098;51.140;4.088;2023-03-23T03:24:55;13.90;94.40
32217;DHT22;67098;51.140;4.088;2023-03-23T03:27:22;14.00;94.30
32217;DHT22;67098;51.140;4.088;2023-03-23T03:29:53;13.90;94.40
32217;DHT22;67098;51.140;4.088;2023-03-23T03:32:21;13.90;94.50
32217;DHT22;67098;51.140;4.088;2023-03-23T03:34:48;13.90;94.50
32217;DHT22;67098;51.140;4.088;2023-03-23T03:37:16;14.00;94.30
32217;DHT22;67098;51.140;4.088;2023-03-23T03:39:42;14.10;94.50
32217;DHT22;67098;51.140;4.088;2023-03-23T03:42:08;13.90;95.00
32217;DHT22;67098;51.140;4.088;2023-03-23T03:44:34;13.90;95.10
32217;DHT22;67098;51.140;4.088;2023-03-23T03:46:59;13.90;95.20
32217;DHT22;67098;51.140;4.088;2023-03-23T03:49:26;14.00;95.30
32217;DHT22;67098;51.140;4.088;2023-03-23T03:51:52;13.80;95.40
32217;DHT22;67098;51.140;4.088;2023-03-23T03:54:18;13.80;95.50
32217;DHT22;67098;51.140;4.088;2023-03-23T03:56:43;13.70;95.70
32217;DHT22;67098;51.140;4.088;2023-03-23T03:59:11;13.80;95.40
32217;DHT22;67098;51.140;4.088;2023-03-23T04:01:38;13.80;95.30
32217;DHT22;67098;51.140;4.088;2023-03-23T04:04:04;13.70;95.40
32217;DHT22;67098;51.140;4.088;2023-03-23T04:06:33;13.70;95.30
32217;DHT22;67098;51.140;4.088;2023-03-23T04:09:02;13.70;95.20
32217;DHT22;67098;51.140;4.088;2023-03-23T04:11:31;13.70;95.20
32217;DHT22;67098;51.140;4.088;2023-03-23T04:13:56;13.70;95.40
32217;DHT22;67098;51.140;4.088;2023-03-23T04:16:22;13.80;95.10
32217;DHT22;67098;51.140;4.088;2023-03-23T04:18:48;13.70;95.30
32217;DHT22;67098;51.140;4.088;2023-03-23T04:21:14;13.80;95.30
32217;DHT22;67098;51.140;4.088;2023-03-23T04:23:39;13.80;95.20
32217;DHT22;67098;51.140;4.088;2023-03-23T04:26:06;13.70;95.30
32217;DHT22;67098;51.140;4.088;2023-03-23T04:28:31;13.60;95.60
32217;DHT22;67098;51.140;4.088;2023-03-23T04:31:00;13.70;95.30
32217;DHT22;67098;51.140;4.088;2023-03-23T04:33:27;13.80;95.10
32217;DHT22;67098;51.140;4.088;2023-03-23T04:35:55;13.60;95.60
32217;DHT22;67098;51.140;4.088;2023-03-23T04:38:22;13.40;95.90
32217;DHT22;67098;51.140;4.088;2023-03-23T04:40:49;13.60;95.40
32217;DHT22;67098;51.140;4.088;2023-03-23T04:43:18;13.60;95.30
32217;DHT22;67098;51.140;4.088;2023-03-23T04:45:51;13.80;95.00
32217;DHT22;67098;51.140;4.088;2023-03-23T04:48:17;13.80;94.80
32217;DHT22;67098;51.140;4.088;2023-03-23T04:50:45;13.80;94.90
32217;DHT22;67098;51.140;4.088;2023-03-23T04:53:10;13.60;95.10
32217;DHT22;67098;51.140;4.088;2023-03-23T04:55:37;13.60;95.10
32217;DHT22;67098;51.140;4.088;2023-03-23T04:58:04;13.60;95.10
32217;DHT22;67098;51.140;4.088;2023-03-23T05:00:29;13.70;94.90
32217;DHT22;67098;51.140;4.088;2023-03-23T05:02:55;13.70;94.90
32217;DHT22;67098;51.140;4.088;2023-03-23T05:05:22;13.70;95.00
32217;DHT22;67098;51.140;4.088;2023-03-23T05:07:49;13.60;95.00
32217;DHT22;67098;51.140;4.088;2023-03-23T05:10:15;13.80;94.80
32217;DHT22;67098;51.140;4.088;2023-03-23T05:12:41;13.60;95.10
32217;DHT22;67098;51.140;4.088;2023-03-23T05:15:08;13.70;94.70
32217;DHT22;67098;51.140;4.088;2023-03-23T05:17:34;13.70;94.60
32217;DHT22;67098;51.140;4.088;2023-03-23T05:20:01;13.70;94.60
32217;DHT22;67098;51.140;4.088;2023-03-23T05:22:30;13.80;94.40
32217;DHT22;67098;51.140;4.088;2023-03-23T05:24:58;13.70;94.60
32217;DHT22;67098;51.140;4.088;2023-03-23T05:27:24;13.80;94.50
32217;DHT22;67098;51.140;4.088;2023-03-23T05:29:53;13.70;94.70
32217;DHT22;67098;51.140;4.088;2023-03-23T05:32:18;13.60;95.20
32217;DHT22;67098;51.140;4.088;2023-03-23T05:34:44;13.50;95.30
32217;DHT22;67098;51.140;4.088;2023-03-23T05:37:12;13.50;95.40
32217;DHT22;67098;51.140;4.088;2023-03-23T05:39:39;13.50;95.30
32217;DHT22;67098;51.140;4.088;2023-03-23T05:42:05;13.50;95.30
32217;DHT22;67098;51.140;4.088;2023-03-23T05:44:31;13.60;95.30
32217;DHT22;67098;51.140;4.088;2023-03-23T05:46:57;13.60;95.30
32217;DHT22;67098;51.140;4.088;2023-03-23T05:49:23;13.70;95.20
32217;DHT22;67098;51.140;4.088;2023-03-23T05:51:49;13.70;95.40
32217;DHT22;67098;51.140;4.088;2023-03-23T05:54:15;13.70;95.70
32217;DHT22;67098;51.140;4.088;2023-03-23T05:56:41;13.70;95.80
32217;DHT22;67098;51.140;4.088;2023-03-23T05:59:08;13.70;95.80
32217;DHT22;67098;51.140;4.088;2023-03-23T06:01:35;13.80;96.00
32217;DHT22;67098;51.140;4.088;2023-03-23T06:04:01;13.80;96.30
32217;DHT22;67098;51.140;4.088;2023-03-23T06:06:28;13.90;96.20
32217;DHT22;67098;51.140;4.088;2023-03-23T06:08:58;13.90;96.50
32217;DHT22;67098;51.140;4.088;2023-03-23T06:11:24;13.80;96.70
32217;DHT22;67098;51.140;4.088;2023-03-23T06:13:51;13.60;97.30
32217;DHT22;67098;51.140;4.088;2023-03-23T06:16:17;13.30;97.70
32217;DHT22;67098;51.140;4.088;2023-03-23T06:18:43;13.20;97.60
32217;DHT22;67098;51.140;4.088;2023-03-23T06:21:10;13.40;96.80
32217;DHT22;67098;51.140;4.088;2023-03-23T06:23:36;13.50;96.70
32217;DHT22;67098;51.140;4.088;2023-03-23T06:26:05;13.40;96.80
32217;DHT22;67098;51.140;4.088;2023-03-23T06:28:32;13.40;97.00
32217;DHT22;67098;51.140;4.088;2023-03-23T06:31:05;13.30;97.10
32217;DHT22;67098;51.140;4.088;2023-03-23T06:33:32;13.30;97.10
32217;DHT22;67098;51.140;4.088;2023-03-23T06:36:00;13.10;97.60
32217;DHT22;67098;51.140;4.088;2023-03-23T06:38:26;13.10;97.40
32217;DHT22;67098;51.140;4.088;2023-03-23T06:40:54;13.10;97.40
32217;DHT22;67098;51.140;4.088;2023-03-23T06:43:21;13.00;97.00
32217;DHT22;67098;51.140;4.088;2023-03-23T06:45:47;13.00;96.70
32217;DHT22;67098;51.140;4.088;2023-03-23T06:48:12;12.90;96.90
32217;DHT22;67098;51.140;4.088;2023-03-23T06:50:38;13.00;96.80
32217;DHT22;67098;51.140;4.088;2023-03-23T06:53:07;12.80;97.30
32217;DHT22;67098;51.140;4.088;2023-03-23T06:55:32;12.80;97.40
32217;DHT22;67098;51.140;4.088;2023-03-23T06:57:58;12.80;97.40
32217;DHT22;67098;51.140;4.088;2023-03-23T07:00:26;12.90;97.20
32217;DHT22;67098;51.140;4.088;2023-03-23T07:02:52;12.90;96.90
32217;DHT22;67098;51.140;4.088;2023-03-23T07:05:18;12.90;97.10
32217;DHT22;67098;51.140;4.088;2023-03-23T07:07:45;13.00;97.10
32217;DHT22;67098;51.140;4.088;2023-03-23T07:10:10;13.10;96.60
32217;DHT22;67098;51.140;4.088;2023-03-23T07:12:36;13.00;96.80
32217;DHT22;67098;51.140;4.088;2023-03-23T07:15:05;13.10;96.70
32217;DHT22;67098;51.140;4.088;2023-03-23T07:17:33;13.00;96.50
32217;DHT22;67098;51.140;4.088;2023-03-23T07:19:59;12.90;96.70
32217;DHT22;67098;51.140;4.088;2023-03-23T07:22:24;12.70;96.80
32217;DHT22;67098;51.140;4.088;2023-03-23T07:24:50;12.70;96.70
32217;DHT22;67098;51.140;4.088;2023-03-23T07:27:16;12.90;96.50
32217;DHT22;67098;51.140;4.088;2023-03-23T07:29:41;12.90;96.00
32217;DHT22;67098;51.140;4.088;2023-03-23T07:32:11;13.00;95.70
32217;DHT22;67098;51.140;4.088;2023-03-23T07:34:37;12.90;95.90
32217;DHT22;67098;51.140;4.088;2023-03-23T07:37:03;12.90;95.90
32217;DHT22;67098;51.140;4.088;2023-03-23T07:39:29;13.00;95.70
32217;DHT22;67098;51.140;4.088;2023-03-23T07:41:55;12.90;95.90
32217;DHT22;67098;51.140;4.088;2023-03-23T07:44:21;13.00;95.90
32217;DHT22;67098;51.140;4.088;2023-03-23T07:46:47;13.00;95.90
32217;DHT22;67098;51.140;4.088;2023-03-23T07:49:13;13.10;95.90
32217;DHT22;67098;51.140;4.088;2023-03-23T07:51:39;13.00;95.90
32217;DHT22;67098;51.140;4.088;2023-03-23T07:54:06;13.20;95.80
32217;DHT22;67098;51.140;4.088;2023-03-23T07:56:34;13.40;95.70
32217;DHT22;67098;51.140;4.088;2023-03-23T07:59:00;13.20;96.00
32217;DHT22;67098;51.140;4.088;2023-03-23T08:01:26;13.30;95.90
32217;DHT22;67098;51.140;4.088;2023-03-23T08:03:52;13.50;95.70
32217;DHT22;67098;51.140;4.088;2023-03-23T08:06:20;13.50;95.70
32217;DHT22;67098;51.140;4.088;2023-03-23T08:08:47;13.60;95.40
32217;DHT22;67098;51.140;4.088;2023-03-23T08:11:12;13.70;95.60
32217;DHT22;67098;51.140;4.088;2023-03-23T08:13:41;13.90;95.50
32217;DHT22;67098;51.140;4.088;2023-03-23T08:16:08;13.90;95.20
32217;DHT22;67098;51.140;4.088;2023-03-23T08:18:35;14.00;95.20
32217;DHT22;67098;51.140;4.088;2023-03-23T08:21:02;13.90;95.40
32217;DHT22;67098;51.140;4.088;2023-03-23T08:23:30;14.10;95.40
32217;DHT22;67098;51.140;4.088;2023-03-23T08:25:56;14.30;95.20
32217;DHT22;67098;51.140;4.088;2023-03-23T08:28:22;14.50;94.70
32217;DHT22;67098;51.140;4.088;2023-03-23T08:30:49;14.90;94.60
32217;DHT22;67098;51.140;4.088;2023-03-23T08:33:15;15.20;94.50
32217;DHT22;67098;51.140;4.088;2023-03-23T08:35:41;15.50;93.40
32217;DHT22;67098;51.140;4.088;2023-03-23T08:38:08;15.90;92.70
32217;DHT22;67098;51.140;4.088;2023-03-23T08:40:34;16.00;92.20
32217;DHT22;67098;51.140;4.088;2023-03-23T08:42:59;16.10;92.10
32217;DHT22;67098;51.140;4.088;2023-03-23T08:45:26;16.30;92.00
32217;DHT22;67098;51.140;4.088;2023-03-23T08:47:52;16.60;92.30
32217;DHT22;67098;51.140;4.088;2023-03-23T08:50:23;16.60;91.80
32217;DHT22;67098;51.140;4.088;2023-03-23T08:52:50;16.50;91.20
32217;DHT22;67098;51.140;4.088;2023-03-23T08:55:16;16.70;91.10
32217;DHT22;67098;51.140;4.088;2023-03-23T08:57:43;16.80;90.50
32217;DHT22;67098;51.140;4.088;2023-03-23T09:00:13;16.90;90.60
32217;DHT22;67098;51.140;4.088;2023-03-23T09:02:51;16.80;90.10
32217;DHT22;67098;51.140;4.088;2023-03-23T09:05:21;16.70;90.50
32217;DHT22;67098;51.140;4.088;2023-03-23T09:07:49;16.80;90.50
32217;DHT22;67098;51.140;4.088;2023-03-23T09:10:16;17.00;90.30
32217;DHT22;67098;51.140;4.088;2023-03-23T09:12:43;16.90;90.20
32217;DHT22;67098;51.140;4.088;2023-03-23T09:15:13;16.90;90.10
32217;DHT22;67098;51.140;4.088;2023-03-23T09:17:46;16.80;90.20
32217;DHT22;67098;51.140;4.088;2023-03-23T09:20:14;17.10;90.20
32217;DHT22;67098;51.140;4.088;2023-03-23T09:22:42;17.60;89.50
32217;DHT22;67098;51.140;4.088;2023-03-23T09:25:12;17.60;88.80
32217;DHT22;67098;51.140;4.088;2023-03-23T09:27:39;18.00;87.80
32217;DHT22;67098;51.140;4.088;2023-03-23T09:30:10;18.10;87.40
32217;DHT22;67098;51.140;4.088;2023-03-23T09:32:37;18.50;87.20
32217;DHT22;67098;51.140;4.088;2023-03-23T09:35:05;18.60;85.90
32217;DHT22;67098;51.140;4.088;2023-03-23T09:37:35;18.70;84.70
32217;DHT22;67098;51.140;4.088;2023-03-23T09:40:06;18.90;85.50
32217;DHT22;67098;51.140;4.088;2023-03-23T09:48:53;17.90;86.80
32217;DHT22;67098;51.140;4.088;2023-03-23T09:51:31;18.10;85.80
32217;DHT22;67098;51.140;4.088;2023-03-23T09:56:46;18.10;86.70
32217;DHT22;67098;51.140;4.088;2023-03-23T09:59:52;18.10;87.00
32217;DHT22;67098;51.140;4.088;2023-03-23T10:02:17;18.70;85.90
32217;DHT22;67098;51.140;4.088;2023-03-23T10:07:15;18.40;86.00
32217;DHT22;67098;51.140;4.088;2023-03-23T10:09:44;18.50;85.70
32217;DHT22;67098;51.140;4.088;2023-03-23T10:12:38;18.50;85.70
32217;DHT22;67098;51.140;4.088;2023-03-23T10:15:20;18.40;85.70
32217;DHT22;67098;51.140;4.088;2023-03-23T10:18:13;18.20;86.00
32217;DHT22;67098;51.140;4.088;2023-03-23T10:20:59;18.20;85.80
32217;DHT22;67098;51.140;4.088;2023-03-23T10:26:21;18.10;85.90
32217;DHT22;67098;51.140;4.088;2023-03-23T10:29:08;18.20;85.30
32217;DHT22;67098;51.140;4.088;2023-03-23T10:31:40;18.30;85.40
32217;DHT22;67098;51.140;4.088;2023-03-23T10:34:27;18.00;86.50
32217;DHT22;67098;51.140;4.088;2023-03-23T10:37:44;18.00;86.10
32217;DHT22;67098;51.140;4.088;2023-03-23T10:39:55;18.50;85.30
32217;DHT22;67098;51.140;4.088;2023-03-23T10:42:31;18.50;84.60
32217;DHT22;67098;51.140;4.088;2023-03-23T10:45:31;18.30;84.80
32217;DHT22;67098;51.140;4.088;2023-03-23T10:48:16;18.20;85.50
32217;DHT22;67098;51.140;4.088;2023-03-23T10:50:43;18.30;85.10
32217;DHT22;67098;51.140;4.088;2023-03-23T10:53:21;18.00;86.20
32217;DHT22;67098;51.140;4.088;2023-03-23T10:55:47;18.20;85.80
32217;DHT22;67098;51.140;4.088;2023-03-23T10:58:25;18.80;85.20
32217;DHT22;67098;51.140;4.088;2023-03-23T11:00:51;19.50;83.00
32217;DHT22;67098;51.140;4.088;2023-03-23T11:06:23;20.00;81.30
32217;DHT22;67098;51.140;4.088;2023-03-23T11:09:00;20.80;80.50
32217;DHT22;67098;51.140;4.088;2023-03-23T11:11:50;21.30;79.40
32217;DHT22;67098;51.140;4.088;2023-03-23T11:16:52;20.10;80.60
32217;DHT22;67098;51.140;4.088;2023-03-23T11:19:30;20.30;81.20
32217;DHT22;67098;51.140;4.088;2023-03-23T11:22:26;20.30;80.80
32217;DHT22;67098;51.140;4.088;2023-03-23T11:24:55;20.00;81.00
32217;DHT22;67098;51.140;4.088;2023-03-23T11:27:23;19.60;81.30
32217;DHT22;67098;51.140;4.088;2023-03-23T11:29:53;19.40;81.80
32217;DHT22;67098;51.140;4.088;2023-03-23T11:32:22;19.30;83.20
32217;DHT22;67098;51.140;4.088;2023-03-23T11:35:03;19.20;82.30
32217;DHT22;67098;51.140;4.088;2023-03-23T11:37:43;19.40;80.80
32217;DHT22;67098;51.140;4.088;2023-03-23T11:43:00;19.40;80.50
32217;DHT22;67098;51.140;4.088;2023-03-23T11:45:40;19.90;80.50
32217;DHT22;67098;51.140;4.088;2023-03-23T11:48:38;20.20;77.90
32217;DHT22;67098;51.140;4.088;2023-03-23T11:56:33;19.20;80.30
32217;DHT22;67098;51.140;4.088;2023-03-23T11:59:00;19.30;80.50
32217;DHT22;67098;51.140;4.088;2023-03-23T12:01:36;19.20;81.30
32217;DHT22;67098;51.140;4.088;2023-03-23T12:09:45;18.00;84.00
32217;DHT22;67098;51.140;4.088;2023-03-23T12:17:24;17.40;88.30
32217;DHT22;67098;51.140;4.088;2023-03-23T12:20:24;17.40;88.70
32217;DHT22;67098;51.140;4.088;2023-03-23T12:28:07;18.80;86.70
32217;DHT22;67098;51.140;4.088;2023-03-23T12:38:57;19.50;85.30
32217;DHT22;67098;51.140;4.088;2023-03-23T12:44:03;20.30;84.30
32217;DHT22;67098;51.140;4.088;2023-03-23T12:46:51;20.90;81.90
32217;DHT22;67098;51.140;4.088;2023-03-23T12:52:55;20.80;79.50
32217;DHT22;67098;51.140;4.088;2023-03-23T12:57:59;19.00;83.50
32217;DHT22;67098;51.140;4.088;2023-03-23T13:00:52;18.70;86.00
32217;DHT22;67098;51.140;4.088;2023-03-23T13:05:54;19.50;87.20
32217;DHT22;67098;51.140;4.088;2023-03-23T13:08:37;20.00;84.30
32217;DHT22;67098;51.140;4.088;2023-03-23T13:11:08;19.90;84.20
32217;DHT22;67098;51.140;4.088;2023-03-23T13:13:44;20.60;82.40
32217;DHT22;67098;51.140;4.088;2023-03-23T13:16:22;21.90;80.80
32217;DHT22;67098;51.140;4.088;2023-03-23T13:24:18;22.00;77.00
32217;DHT22;67098;51.140;4.088;2023-03-23T13:26:45;21.40;77.80
32217;DHT22;67098;51.140;4.088;2023-03-23T13:29:21;21.60;77.20
32217;DHT22;67098;51.140;4.088;2023-03-23T13:31:50;21.50;76.80
32217;DHT22;67098;51.140;4.088;2023-03-23T13:34:21;22.00;76.50
32217;DHT22;67098;51.140;4.088;2023-03-23T13:39:27;22.60;73.60
32217;DHT22;67098;51.140;4.088;2023-03-23T13:49:58;21.30;75.60
32217;DHT22;67098;51.140;4.088;2023-03-23T13:52:37;20.90;77.10
32217;DHT22;67098;51.140;4.088;2023-03-23T13:57:57;20.70;78.80
32217;DHT22;67098;51.140;4.088;2023-03-23T14:00:36;21.10;78.40
32217;DHT22;67098;51.140;4.088;2023-03-23T14:05:49;21.00;77.90
32217;DHT22;67098;51.140;4.088;2023-03-23T14:08:37;21.30;75.30
32217;DHT22;67098;51.140;4.088;2023-03-23T14:15:00;21.00;74.50
32217;DHT22;67098;51.140;4.088;2023-03-23T14:17:06;21.20;74.00
32217;DHT22;67098;51.140;4.088;2023-03-23T14:19:32;21.50;72.90
32217;DHT22;67098;51.140;4.088;2023-03-23T14:22:00;21.80;72.60
32217;DHT22;67098;51.140;4.088;2023-03-23T14:24:39;21.80;72.30
32217;DHT22;67098;51.140;4.088;2023-03-23T14:29:30;21.90;72.20
32217;DHT22;67098;51.140;4.088;2023-03-23T14:31:57;22.70;71.40
32217;DHT22;67098;51.140;4.088;2023-03-23T14:34:27;23.50;70.50
32217;DHT22;67098;51.140;4.088;2023-03-23T14:36:54;23.80;69.30
32217;DHT22;67098;51.140;4.088;2023-03-23T14:39:28;23.90;68.50
32217;DHT22;67098;51.140;4.088;2023-03-23T14:41:56;23.40;69.20
32217;DHT22;67098;51.140;4.088;2023-03-23T14:44:26;23.20;70.00
32217;DHT22;67098;51.140;4.088;2023-03-23T14:46:52;22.60;71.80
32217;DHT22;67098;51.140;4.088;2023-03-23T14:49:25;22.50;72.00
32217;DHT22;67098;51.140;4.088;2023-03-23T14:51:53;22.70;72.20
32217;DHT22;67098;51.140;4.088;2023-03-23T14:54:25;22.70;72.20
32217;DHT22;67098;51.140;4.088;2023-03-23T14:56:51;22.00;73.30
32217;DHT22;67098;51.140;4.088;2023-03-23T14:59:17;21.50;74.70
32217;DHT22;67098;51.140;4.088;2023-03-23T15:01:43;21.30;75.60
32217;DHT22;67098;51.140;4.088;2023-03-23T15:04:16;21.30;76.30
32217;DHT22;67098;51.140;4.088;2023-03-23T15:06:45;20.90;77.30
32217;DHT22;67098;51.140;4.088;2023-03-23T15:09:17;21.40;77.50
32217;DHT22;67098;51.140;4.088;2023-03-23T15:12:01;22.30;75.90
32217;DHT22;67098;51.140;4.088;2023-03-23T15:14:43;22.80;75.60
32217;DHT22;67098;51.140;4.088;2023-03-23T15:17:27;22.90;74.30
32217;DHT22;67098;51.140;4.088;2023-03-23T15:19:54;22.80;74.10
32217;DHT22;67098;51.140;4.088;2023-03-23T15:22:26;22.90;73.60
32217;DHT22;67098;51.140;4.088;2023-03-23T15:24:53;22.90;73.40
32217;DHT22;67098;51.140;4.088;2023-03-23T15:27:34;23.10;72.80
32217;DHT22;67098;51.140;4.088;2023-03-23T15:30:18;22.80;73.00
32217;DHT22;67098;51.140;4.088;2023-03-23T15:32:54;22.40;73.80
32217;DHT22;67098;51.140;4.088;2023-03-23T15:35:23;21.80;74.40
32217;DHT22;67098;51.140;4.088;2023-03-23T15:38:23;21.80;75.00
32217;DHT22;67098;51.140;4.088;2023-03-23T15:40:51;21.80;75.10
32217;DHT22;67098;51.140;4.088;2023-03-23T15:43:21;21.70;75.20
32217;DHT22;67098;51.140;4.088;2023-03-23T15:45:59;21.40;76.20
32217;DHT22;67098;51.140;4.088;2023-03-23T15:51:27;20.70;77.80
32217;DHT22;67098;51.140;4.088;2023-03-23T15:53:54;20.50;78.20
32217;DHT22;67098;51.140;4.088;2023-03-23T15:56:20;20.20;79.00
32217;DHT22;67098;51.140;4.088;2023-03-23T15:58:46;20.10;78.90
32217;DHT22;67098;51.140;4.088;2023-03-23T16:01:18;19.90;79.50
32217;DHT22;67098;51.140;4.088;2023-03-23T16:06:16;19.70;80.00
32217;DHT22;67098;51.140;4.088;2023-03-23T16:08:42;19.50;80.70
32217;DHT22;67098;51.140;4.088;2023-03-23T16:11:12;19.00;81.70
32217;DHT22;67098;51.140;4.088;2023-03-23T16:13:38;18.40;83.10
32217;DHT22;67098;51.140;4.088;2023-03-23T16:16:05;17.90;86.20
32217;DHT22;67098;51.140;4.088;2023-03-23T16:18:31;17.60;88.20
32217;DHT22;67098;51.140;4.088;2023-03-23T16:20:57;17.50;89.00
32217;DHT22;67098;51.140;4.088;2023-03-23T16:23:22;17.50;89.30
32217;DHT22;67098;51.140;4.088;2023-03-23T16:25:48;17.50;89.60
32217;DHT22;67098;51.140;4.088;2023-03-23T16:28:14;17.70;88.90
32217;DHT22;67098;51.140;4.088;2023-03-23T16:30:41;17.80;88.80
32217;DHT22;67098;51.140;4.088;2023-03-23T16:33:07;17.90;88.60
32217;DHT22;67098;51.140;4.088;2023-03-23T16:35:34;18.10;88.00
32217;DHT22;67098;51.140;4.088;2023-03-23T16:38:00;18.10;87.90
32217;DHT22;67098;51.140;4.088;2023-03-23T16:40:25;18.10;87.70
32217;DHT22;67098;51.140;4.088;2023-03-23T16:42:52;18.20;87.70
32217;DHT22;67098;51.140;4.088;2023-03-23T16:45:17;18.10;87.80
32217;DHT22;67098;51.140;4.088;2023-03-23T16:47:44;17.90;88.20
32217;DHT22;67098;51.140;4.088;2023-03-23T16:50:12;17.80;90.10
32217;DHT22;67098;51.140;4.088;2023-03-23T16:52:39;17.50;90.00
32217;DHT22;67098;51.140;4.088;2023-03-23T16:55:06;17.10;89.90
32217;DHT22;67098;51.140;4.088;2023-03-23T16:57:33;16.90;90.10
32217;DHT22;67098;51.140;4.088;2023-03-23T17:00:03;16.90;90.40
32217;DHT22;67098;51.140;4.088;2023-03-23T17:02:31;16.70;90.40
32217;DHT22;67098;51.140;4.088;2023-03-23T17:04:57;16.60;90.70
32217;DHT22;67098;51.140;4.088;2023-03-23T17:07:23;16.50;90.40
32217;DHT22;67098;51.140;4.088;2023-03-23T17:09:49;16.60;90.30
32217;DHT22;67098;51.140;4.088;2023-03-23T17:12:14;16.60;90.30
32217;DHT22;67098;51.140;4.088;2023-03-23T17:14:40;16.60;90.30
32217;DHT22;67098;51.140;4.088;2023-03-23T17:17:06;16.50;90.00
32217;DHT22;67098;51.140;4.088;2023-03-23T17:19:31;16.40;90.30
32217;DHT22;67098;51.140;4.088;2023-03-23T17:21:57;16.30;90.30
32217;DHT22;67098;51.140;4.088;2023-03-23T17:24:23;16.40;90.40
32217;DHT22;67098;51.140;4.088;2023-03-23T17:26:48;16.40;90.40
32217;DHT22;67098;51.140;4.088;2023-03-23T17:29:14;16.40;90.30
32217;DHT22;67098;51.140;4.088;2023-03-23T17:31:39;16.50;90.50
32217;DHT22;67098;51.140;4.088;2023-03-23T17:34:06;16.70;90.10
32217;DHT22;67098;51.140;4.088;2023-03-23T17:36:32;16.60;89.70
32217;DHT22;67098;51.140;4.088;2023-03-23T17:38:57;16.70;90.30
32217;DHT22;67098;51.140;4.088;2023-03-23T17:41:23;16.80;90.20
32217;DHT22;67098;51.140;4.088;2023-03-23T17:43:48;17.00;89.80
32217;DHT22;67098;51.140;4.088;2023-03-23T17:46:14;17.10;89.20
32217;DHT22;67098;51.140;4.088;2023-03-23T17:48:40;17.20;88.70